Terminal Aerodrome Forecast
Issued by NWS

Home | Current Version | Previous Version | Text Only | Print | Product List | Glossary On
Versions: 1 2 3 4 5 6 7 8 9 10 11
000
FTUS45 KGGW 032320
TAFSDY
TAF
KSDY 032320Z 0400/0424 01010KT P6SM BKN150
     FM040900 02010KT P6SM VCSH BKN070
     FM042100 05013KT P6SM VCTS BKN040CB
      AMD LTD TO CLD VIS AND WIND=

USA.gov is the U.S. government's official web portal to all federal, state and local government web resources and services.